createdAt,value
2022-10-14T12:00:01.009Z,13.1
2022-10-14T12:05:00.898Z,12.4
2022-10-14T12:10:00.852Z,10.6
2022-10-14T12:15:09.856Z,12.7
2022-10-14T12:20:00.471Z,9.4
2022-10-14T12:25:00.583Z,9.6
2022-10-14T12:30:00.785Z,9.3
2022-10-14T12:35:00.448Z,8.3
2022-10-14T12:40:01.136Z,8.9
2022-10-14T12:45:00.935Z,8.5
2022-10-14T12:50:01.990Z,9.5
2022-10-14T12:55:00.367Z,9.0
2022-10-14T13:00:01.158Z,7.6
2022-10-14T13:05:00.381Z,7.4
2022-10-14T13:10:00.343Z,9.9
2022-10-14T13:15:00.338Z,6.7
2022-10-14T13:20:00.728Z,7.6
2022-10-14T13:25:00.379Z,6.8
2022-10-14T13:30:00.480Z,4.9
2022-10-14T13:35:00.325Z,4.2
2022-10-14T13:40:00.587Z,4.7
2022-10-14T13:45:00.490Z,4.4
2022-10-14T13:50:00.333Z,4.2
2022-10-14T13:55:00.548Z,4.1
2022-10-14T14:05:00.347Z,3.9
2022-10-14T14:10:00.330Z,3.7
2022-10-14T14:15:00.452Z,4.4
2022-10-14T14:20:00.293Z,4.4
2022-10-14T14:25:12.328Z,3.9
2022-10-14T14:30:00.267Z,4.3
2022-10-14T14:35:00.314Z,4.1
2022-10-14T14:40:01.514Z,5.1
2022-10-14T14:45:00.176Z,4.1
2022-10-14T14:50:24.914Z,3.2
2022-10-14T14:55:03.087Z,3.5
2022-10-14T15:00:00.236Z,4.0
2022-10-14T15:05:00.184Z,3.5
2022-10-14T15:10:00.216Z,4.3
2022-10-14T15:15:00.273Z,4.7
2022-10-14T15:20:00.415Z,3.9
2022-10-14T15:25:00.254Z,4.6
2022-10-14T15:30:00.297Z,6.7
2022-10-14T15:35:00.235Z,5.4
2022-10-14T15:40:00.255Z,4.9
2022-10-14T15:45:00.265Z,5.8
2022-10-14T15:50:00.467Z,6.4
2022-10-14T15:55:00.597Z,7.9
2022-10-14T16:00:00.346Z,8.1
2022-10-14T16:05:19.321Z,8.2
2022-10-14T16:10:01.066Z,12.5
2022-10-14T16:15:00.710Z,10.5
2022-10-14T16:20:00.881Z,11.8
2022-10-14T16:25:00.997Z,10.2
2022-10-14T16:30:00.906Z,12.4
2022-10-14T16:35:00.585Z,11.6
2022-10-14T16:40:01.039Z,17.5
2022-10-14T16:45:00.379Z,11.8
2022-10-14T16:50:00.513Z,13.6
2022-10-14T16:55:00.500Z,15.7
2022-10-14T17:00:00.581Z,14.4
2022-10-14T17:05:00.420Z,13.0
2022-10-14T17:10:00.662Z,15.3
2022-10-14T17:15:00.444Z,16.8
2022-10-14T17:25:00.283Z,17.0
2022-10-14T17:30:00.254Z,20.9
2022-10-14T17:35:01.541Z,20.5
2022-10-14T17:40:00.235Z,19.9
2022-10-14T17:45:00.385Z,18.7
2022-10-14T17:50:00.237Z,20.6
2022-10-14T17:55:01.537Z,20.3
2022-10-14T18:00:00.321Z,21.4
2022-10-14T18:05:00.281Z,24.0
2022-10-14T18:10:01.461Z,27.0
2022-10-14T18:15:00.267Z,26.4
2022-10-14T18:20:00.264Z,24.8
2022-10-14T18:25:01.397Z,25.5
2022-10-14T18:30:00.869Z,27.2
2022-10-14T18:35:01.167Z,23.6
2022-10-14T18:40:00.295Z,24.0
2022-10-14T18:45:00.331Z,27.0
2022-10-14T18:50:01.033Z,26.9
2022-10-14T18:55:00.267Z,29.0
2022-10-14T19:00:02.000Z,27.5
2022-10-14T19:05:01.830Z,28.9
2022-10-14T19:10:01.171Z,27.5
2022-10-14T19:15:00.736Z,25.7
2022-10-14T19:20:01.307Z,29.2
2022-10-14T19:25:00.897Z,29.8
2022-10-14T19:30:01.033Z,30.0
2022-10-14T19:35:00.465Z,30.6
2022-10-14T19:40:00.255Z,32.8
2022-10-14T19:45:01.228Z,30.5
2022-10-14T19:50:01.652Z,32.3
2022-10-14T19:55:01.321Z,28.1
2022-10-14T20:00:01.469Z,34.3
2022-10-14T20:05:00.702Z,34.9
2022-10-14T20:10:02.727Z,35.9
2022-10-14T20:15:00.218Z,33.2
2022-10-14T20:20:00.191Z,28.2
2022-10-14T20:25:00.234Z,32.1
2022-10-14T20:30:00.187Z,31.8
2022-10-14T20:35:00.191Z,35.4
2022-10-14T20:40:00.172Z,32.4
2022-10-14T20:45:00.158Z,32.2
2022-10-14T20:50:00.453Z,35.5
2022-10-14T20:55:00.270Z,31.8
2022-10-14T21:00:00.301Z,31.7
2022-10-14T21:05:00.275Z,34.3
2022-10-14T21:10:00.286Z,35.6
2022-10-14T21:15:00.282Z,32.9
2022-10-14T21:20:00.249Z,32.4
2022-10-14T21:25:00.272Z,34.2
2022-10-14T21:30:00.539Z,33.5
2022-10-14T21:35:00.257Z,32.1
2022-10-14T21:40:00.269Z,32.1
2022-10-14T21:45:00.283Z,33.5
2022-10-14T21:50:00.283Z,31.4
2022-10-14T21:55:00.240Z,30.6
2022-10-14T22:00:00.324Z,33.9
2022-10-14T22:05:00.236Z,31.5
2022-10-14T22:10:00.464Z,32.1
2022-10-14T22:20:00.411Z,32.5
2022-10-14T22:25:00.236Z,32.1
2022-10-14T22:30:00.219Z,34.2
2022-10-14T22:35:00.378Z,33.5
2022-10-14T22:40:00.227Z,36.6
2022-10-14T22:45:00.200Z,36.9
2022-10-14T22:50:00.229Z,32.8
2022-10-14T22:55:00.224Z,31.1
2022-10-14T23:00:01.975Z,34.9
2022-10-14T23:05:00.247Z,32.2
2022-10-14T23:10:00.210Z,31.9
2022-10-14T23:15:00.236Z,31.3
2022-10-14T23:20:00.247Z,32.8
2022-10-14T23:25:00.251Z,36.3
2022-10-14T23:30:00.243Z,30.8
2022-10-14T23:35:00.223Z,32.6
2022-10-14T23:40:01.009Z,34.6
2022-10-14T23:45:00.257Z,30.6
2022-10-14T23:50:00.223Z,35.3
2022-10-14T23:55:00.368Z,38.7
